Time;durP1;ratioP1;P1;durP2;ratioP2;P2;SDS_P1;SDS_P2;PMS_P1;PMS_P2;Temp;Humidity;BMP_temperature;BMP_pressure;BME280_temperature;BME280_humidity;BME280_pressure;Samples;Min_cycle;Max_cycle;Signal;HPM_P1;HPM_P2
2022/09/10 00:01:17;;;;;;;60.35;29.35;;;;;;;7.27;66.19;100859.22;6280203;22;20022;-85
2022/09/10 00:03:44;;;;;;;55.00;28.73;;;;;;;7.01;66.39;100828.16;6281746;22;20019;-84
2022/09/10 00:06:10;;;;;;;61.58;29.67;;;;;;;7.00;67.04;100853.72;6252791;22;20069;-84
2022/09/10 00:08:38;;;;;;;60.22;28.67;;;;;;;7.00;67.20;100863.78;6251195;22;20027;-84
2022/09/10 00:11:08;;;;;;;68.35;30.55;;;;;;;6.93;67.15;100863.13;6278253;22;20019;-84
2022/09/10 00:13:38;;;;;;;65.25;29.30;;;;;;;6.86;67.35;100862.50;6251783;22;20472;-84
2022/09/10 00:16:10;;;;;;;55.13;27.05;;;;;;;6.82;68.22;100865.72;6278148;22;20016;-84
2022/09/10 00:18:37;;;;;;;50.63;27.13;;;;;;;6.84;68.35;100868.16;6250228;22;20362;-84
2022/09/10 00:21:10;;;;;;;66.32;29.40;;;;;;;6.81;67.83;100869.47;6279444;22;20019;-84
2022/09/10 00:23:37;;;;;;;61.55;28.35;;;;;;;6.64;67.41;100843.41;6278458;22;20066;-84
2022/09/10 00:26:39;;;;;;;56.75;28.77;;;;;;;6.67;68.35;100870.09;6279265;22;20016;-83
2022/09/10 00:29:10;;;;;;;51.83;27.75;;;;;;;6.53;68.82;100867.72;6277414;22;20027;-83
2022/09/10 00:31:36;;;;;;;46.95;22.98;;;;;;;6.53;69.84;100865.00;6279035;22;20023;-82
2022/09/10 00:34:04;;;;;;;42.87;23.23;;;;;;;6.59;70.22;100855.84;6226426;22;20020;-83
2022/09/10 00:36:34;;;;;;;38.92;23.02;;;;;;;6.70;69.46;100861.44;6251347;22;20261;-84
2022/09/10 00:39:31;;;;;;;45.45;23.20;;;;;;;6.59;69.33;100852.31;6252086;23;20484;-84
2022/09/10 00:41:57;;;;;;;52.03;24.98;;;;;;;6.62;68.41;100849.09;6243370;23;20024;-83
2022/09/10 00:44:38;;;;;;;51.40;24.17;;;;;;;6.69;68.25;100865.22;6222838;23;20398;-84
2022/09/10 00:47:21;;;;;;;46.90;22.83;;;;;;;6.63;68.33;100867.06;6247697;23;20456;-83
2022/09/10 00:49:52;;;;;;;44.38;23.33;;;;;;;6.59;68.84;100872.16;6248799;23;20024;-84
2022/09/10 00:52:19;;;;;;;45.63;23.48;;;;;;;6.37;68.57;100854.13;6222233;23;20015;-84
2022/09/10 00:54:47;;;;;;;47.17;24.38;;;;;;;6.35;68.14;100855.19;6250540;22;20132;-84
2022/09/10 00:57:23;;;;;;;60.08;24.77;;;;;;;6.18;68.43;100837.25;6246876;22;20123;-84
2022/09/10 00:59:56;;;;;;;49.40;24.70;;;;;;;6.29;69.00;100875.22;6249667;23;20154;-84
2022/09/10 01:02:22;;;;;;;42.47;22.50;;;;;;;6.07;70.04;100845.25;6246804;23;20454;-84
2022/09/10 01:04:49;;;;;;;42.72;20.58;;;;;;;6.27;71.21;100884.66;6196199;23;20020;-84
2022/09/10 01:07:20;;;;;;;40.95;19.40;;;;;;;6.14;71.41;100853.22;6246292;23;20098;-84
2022/09/10 01:09:55;;;;;;;44.47;17.98;;;;;;;6.37;71.26;100878.59;6247861;22;19996;-84
2022/09/10 01:13:04;;;;;;;45.05;21.40;;;;;;;6.32;69.35;100863.88;6248707;22;20062;-84
2022/09/10 01:16:01;;;;;;;44.20;20.55;;;;;;;6.32;68.14;100861.16;6129672;23;20060;-84
2022/09/10 01:18:48;;;;;;;43.97;19.92;;;;;;;6.33;68.28;100883.69;6132367;23;20013;-84
2022/09/10 01:21:19;;;;;;;;;;;;;;;6.26;68.19;100881.13;6130606;23;20045;-84
2022/09/10 01:23:54;;;;;;;39.40;19.15;;;;;;;6.05;68.10;100862.84;6156767;23;19941;-83
2022/09/10 01:26:46;;;;;;;42.92;18.85;;;;;;;6.04;69.07;100885.63;6157474;23;20017;-84
2022/09/10 01:29:21;;;;;;;39.42;18.73;;;;;;;5.88;69.53;100860.06;6106550;23;20013;-84
2022/09/10 01:31:53;;;;;;;37.75;18.20;;;;;;;6.04;69.47;100883.72;6106226;23;20400;-84
2022/09/10 01:34:48;;;;;;;39.10;18.30;;;;;;;6.00;69.88;100888.00;6129706;23;20022;-84
2022/09/10 01:37:23;;;;;;;41.17;17.42;;;;;;;5.96;70.31;100884.16;6103893;23;20390;-84
2022/09/10 01:39:52;;;;;;;38.75;17.42;;;;;;;5.98;70.05;100892.03;6132244;23;20137;-84
2022/09/10 01:42:19;;;;;;;44.42;18.38;;;;;;;5.82;69.62;100867.28;6128295;23;20048;-84
2022/09/10 01:44:51;;;;;;;38.90;16.10;;;;;;;5.85;70.18;100861.38;6107575;23;20415;-84
2022/09/10 01:47:44;;;;;;;35.03;15.75;;;;;;;6.10;70.44;100890.09;6130340;23;20018;-84
2022/09/10 01:50:37;;;;;;;34.00;15.52;;;;;;;5.93;70.74;100856.63;6155652;23;19997;-84
2022/09/10 01:53:19;;;;;;;35.60;16.33;;;;;;;6.09;70.05;100883.00;6244597;23;20020;-84
2022/09/10 01:55:58;;;;;;;34.53;15.68;;;;;;;6.08;68.88;100886.78;6245712;23;20020;-84
2022/09/10 01:58:39;;;;;;;44.97;15.55;;;;;;;5.81;68.22;100864.81;6245176;22;20016;-84
2022/09/10 02:01:30;;;;;;;39.78;15.98;;;;;;;5.68;69.20;100859.69;6245567;22;20078;-84
2022/09/10 02:04:02;;;;;;;36.42;15.65;;;;;;;5.79;70.63;100881.31;6220178;23;20020;-84
2022/09/10 02:06:33;;;;;;;42.97;16.15;;;;;;;5.81;70.68;100886.53;6247510;23;20012;-84
2022/09/10 02:09:01;;;;;;;42.13;14.73;;;;;;;5.77;70.70;100874.53;6244085;23;20026;-84
2022/09/10 02:11:28;;;;;;;40.20;15.55;;;;;;;5.50;71.05;100847.97;6246573;23;20020;-85
2022/09/10 02:13:57;;;;;;;35.15;14.60;;;;;;;5.79;72.15;100885.94;6244999;23;20023;-84
2022/09/10 02:17:01;;;;;;;32.88;15.02;;;;;;;5.67;72.21;100848.03;6246152;23;20020;-85
2022/09/10 02:19:28;;;;;;;37.22;14.75;;;;;;;5.99;71.49;100888.22;6243510;23;20074;-84
2022/09/10 02:21:56;;;;;;;37.55;14.10;;;;;;;5.98;70.99;100884.69;6247074;23;20026;-85
2022/09/10 02:24:23;;;;;;;40.10;14.48;;;;;;;6.03;71.05;100894.84;6247891;22;20051;-83
2022/09/10 02:26:50;;;;;;;42.28;13.57;;;;;;;5.90;71.24;100860.66;6194932;23;20465;-85
2022/09/10 02:29:18;;;;;;;35.55;14.32;;;;;;;5.92;70.58;100853.06;6243682;23;20608;-85
2022/09/10 02:31:46;;;;;;;28.98;13.55;;;;;;;6.05;70.09;100879.13;6247305;22;20016;-84
2022/09/10 02:34:16;;;;;;;49.17;15.13;;;;;;;5.93;70.03;100872.91;6245148;22;20066;-85
2022/09/10 02:36:45;;;;;;;41.55;16.15;;;;;;;5.77;70.12;100850.91;6244665;23;20020;-84
2022/09/10 02:39:13;;;;;;;36.30;14.68;;;;;;;5.78;69.90;100860.69;6258735;22;20019;-85
2022/09/10 02:41:40;;;;;;;36.05;15.80;;;;;;;5.88;70.23;100881.78;6224932;22;20335;-83
2022/09/10 02:44:07;;;;;;;;;;;;;;;5.85;69.07;100880.38;6278752;22;20019;-84
2022/09/10 02:46:35;;;;;;;40.88;15.88;;;;;;;5.66;68.94;100859.91;6251840;22;19922;-84
2022/09/10 02:49:02;;;;;;;43.22;15.60;;;;;;;5.61;68.86;100876.13;6249489;22;20570;-84
2022/09/10 02:51:32;;;;;;;41.60;15.35;;;;;;;5.52;69.73;100878.38;6279281;22;20094;-84
2022/09/10 02:53:58;;;;;;;46.10;17.33;;;;;;;5.44;69.58;100873.34;6250070;22;20095;-84
2022/09/10 02:56:24;;;;;;;35.20;15.23;;;;;;;5.41;69.36;100871.94;6275096;22;20019;-84
2022/09/10 02:58:50;;;;;;;42.72;16.25;;;;;;;5.35;69.30;100874.78;6250389;22;20327;-84
2022/09/10 03:01:19;;;;;;;42.75;17.33;;;;;;;5.39;70.31;100884.91;6278226;22;20015;-84
2022/09/10 03:03:53;;;;;;;37.22;16.45;;;;;;;5.27;70.21;100886.00;6251747;22;20035;-84
2022/09/10 03:06:22;;;;;;;48.78;16.35;;;;;;;5.06;70.51;100858.44;6249537;22;20016;-85
2022/09/10 03:08:48;;;;;;;45.20;16.42;;;;;;;5.21;70.11;100895.91;6251494;22;20019;-84
2022/09/10 03:11:15;;;;;;;41.22;17.83;;;;;;;5.10;70.67;100888.59;6252505;22;20047;-82
2022/09/10 03:13:44;;;;;;;37.15;16.88;;;;;;;5.05;70.69;100899.34;6286016;22;20000;-82
2022/09/10 03:16:12;;;;;;;45.45;17.05;;;;;;;5.00;71.62;100880.25;6251564;22;20039;-82
2022/09/10 03:18:40;;;;;;;40.60;16.67;;;;;;;5.09;71.70;100887.78;6252649;22;20022;-83
2022/09/10 03:21:17;;;;;;;43.90;18.38;;;;;;;5.16;71.28;100882.25;6249061;22;20357;-84
2022/09/10 03:23:49;;;;;;;44.15;17.98;;;;;;;5.11;71.37;100890.28;6226521;22;20410;-84
2022/09/10 03:26:24;;;;;;;48.00;18.48;;;;;;;5.09;71.69;100879.66;6252581;22;20027;-82
2022/09/10 03:28:51;;;;;;;50.10;17.88;;;;;;;5.13;71.84;100888.97;6277003;22;20019;-83
2022/09/10 03:31:20;;;;;;;53.15;17.17;;;;;;;5.18;72.18;100891.78;6276752;22;20030;-85
2022/09/10 03:33:49;;;;;;;52.83;18.55;;;;;;;5.07;72.00;100862.00;6251291;22;20063;-84
2022/09/10 03:36:17;;;;;;;52.63;19.45;;;;;;;5.22;72.24;100889.41;6252661;22;20050;-84
2022/09/10 03:38:46;;;;;;;53.80;19.17;;;;;;;5.26;72.19;100884.34;6252455;22;20476;-83
2022/09/10 03:41:12;;;;;;;55.20;18.55;;;;;;;5.30;72.67;100890.97;6275855;22;20019;-84
2022/09/10 03:43:38;;;;;;;60.10;20.63;;;;;;;5.24;73.10;100876.47;6249956;22;20023;-83
2022/09/10 03:46:10;;;;;;;48.65;17.88;;;;;;;5.15;73.54;100848.06;6251956;22;20020;-83
2022/09/10 03:48:38;;;;;;;58.25;17.90;;;;;;;5.52;73.79;100886.50;6279611;22;20068;-82
2022/09/10 03:51:06;;;;;;;47.88;17.13;;;;;;;5.63;73.89;100890.28;6250880;22;20058;-84
2022/09/10 03:53:33;;;;;;;38.08;16.58;;;;;;;5.67;73.96;100872.44;6230258;22;20511;-82
2022/09/10 03:56:00;;;;;;;40.35;16.27;;;;;;;5.77;73.51;100872.63;6251396;22;20081;-83
2022/09/10 03:58:26;;;;;;;34.67;14.95;;;;;;;5.96;73.61;100886.84;6278609;22;20090;-83
2022/09/10 04:00:53;;;;;;;32.78;14.48;;;;;;;5.95;73.31;100873.50;6250819;22;20023;-83
2022/09/10 04:03:19;;;;;;;49.22;16.75;;;;;;;6.14;73.12;100893.94;6276597;22;20480;-82
2022/09/10 04:05:45;;;;;;;44.50;15.80;;;;;;;6.24;72.89;100875.13;6251448;22;20015;-83
2022/09/10 04:08:12;;;;;;;;;;;;;;;6.43;72.56;100889.28;6253683;22;20018;-83
2022/09/10 04:10:40;;;;;;;42.60;14.73;;;;;;;6.32;72.42;100857.59;6277230;22;20368;-82
2022/09/10 04:13:07;;;;;;;41.03;15.77;;;;;;;6.56;72.40;100886.25;6250126;22;20015;-83
2022/09/10 04:15:35;;;;;;;49.08;16.17;;;;;;;6.53;72.47;100878.59;6250430;22;20099;-82
2022/09/10 04:18:04;;;;;;;47.83;15.07;;;;;;;6.56;72.55;100861.78;6250862;22;20019;-84
2022/09/10 04:20:33;;;;;;;39.83;15.40;;;;;;;6.85;71.79;100890.72;6252917;22;20015;-81
2022/09/10 04:23:05;;;;;;;36.05;14.93;;;;;;;6.87;71.32;100873.09;6278991;22;20046;-82
2022/09/10 04:25:34;;;;;;;37.95;15.95;;;;;;;7.07;71.11;100880.72;6254487;22;20098;-82
2022/09/10 04:28:02;;;;;;;43.35;14.75;;;;;;;7.10;70.75;100868.53;6278528;22;20090;-83
2022/09/10 04:30:30;;;;;;;38.40;15.05;;;;;;;7.26;70.73;100887.50;6281312;22;20019;-85
2022/09/10 04:32:56;;;;;;;47.58;16.02;;;;;;;7.36;71.16;100880.56;6249294;22;20361;-84
2022/09/10 04:35:22;;;;;;;38.75;15.90;;;;;;;7.36;70.54;100869.69;6254626;22;20003;-84
2022/09/10 04:37:48;;;;;;;34.23;15.60;;;;;;;7.62;70.20;100887.13;6206127;22;20074;-86
2022/09/10 04:40:16;;;;;;;43.78;16.67;;;;;;;7.51;69.90;100850.78;6228846;22;20016;-83
2022/09/10 04:42:42;;;;;;;38.35;15.88;;;;;;;7.63;69.65;100867.00;6251369;22;20341;-84
2022/09/10 04:45:10;;;;;;;47.88;16.63;;;;;;;7.97;68.98;100875.78;6256949;22;20089;-86
2022/09/10 04:47:36;;;;;;;41.67;15.93;;;;;;;8.16;68.29;100877.06;6191685;22;20122;-84
2022/09/10 04:50:04;;;;;;;36.10;15.10;;;;;;;8.38;68.23;100887.09;6229352;22;20098;-83
2022/09/10 04:52:42;;;;;;;35.17;15.70;;;;;;;8.57;67.57;100904.69;6270852;22;20022;-89
2022/09/10 04:55:32;;;;;;;42.75;15.43;;;;;;;8.66;67.83;100894.13;6283504;22;20011;-83
2022/09/10 04:58:01;;;;;;;47.97;15.93;;;;;;;8.79;68.19;100899.13;6279213;22;20012;-86
2022/09/10 05:00:27;;;;;;;44.92;16.55;;;;;;;8.81;68.12;100893.44;6254922;22;20066;-79
2022/09/10 05:02:53;;;;;;;38.17;14.40;;;;;;;8.91;67.61;100902.50;6262025;22;20026;-87
2022/09/10 05:05:20;;;;;;;33.45;13.65;;;;;;;8.96;66.41;100893.50;6260576;22;20012;-84
2022/09/10 05:07:47;;;;;;;30.17;13.77;;;;;;;9.10;66.88;100899.31;6262570;22;20015;-88
2022/09/10 05:10:14;;;;;;;39.53;14.88;;;;;;;9.20;66.91;100893.91;6254319;22;20043;-82
2022/09/10 05:12:40;;;;;;;41.72;14.75;;;;;;;9.29;66.28;100892.31;6259984;22;20026;-82
2022/09/10 05:15:08;;;;;;;31.63;13.27;;;;;;;9.38;65.53;100898.94;6235349;22;20038;-81
2022/09/10 05:17:35;;;;;;;28.45;11.75;;;;;;;9.38;62.85;100879.81;6259394;22;20039;-79
2022/09/10 05:20:02;;;;;;;28.75;11.15;;;;;;;9.57;62.88;100896.56;6248755;22;20449;-79
2022/09/10 05:22:34;;;;;;;21.83;11.00;;;;;;;9.64;62.61;100883.47;6247545;22;20019;-79
2022/09/10 05:25:02;;;;;;;26.60;10.77;;;;;;;9.78;62.55;100894.72;6248118;22;20361;-78
2022/09/10 05:27:28;;;;;;;24.33;10.30;;;;;;;9.89;61.02;100890.09;6223371;22;20015;-77
2022/09/10 05:29:56;;;;;;;28.48;12.00;;;;;;;9.93;61.05;100877.50;6222551;22;20016;-77
2022/09/10 05:32:22;;;;;;;;;;;;;;;10.09;60.83;100887.38;6276055;22;20016;-78
2022/09/10 05:34:49;;;;;;;21.03;8.77;;;;;;;10.14;60.12;100889.31;6247883;22;19915;-77
2022/09/10 05:37:15;;;;;;;14.73;7.60;;;;;;;10.20;59.40;100879.19;6247480;22;20719;-78
2022/09/10 05:39:42;;;;;;;27.70;8.10;;;;;;;10.34;58.66;100888.56;6242737;23;20400;-79
2022/09/10 05:42:08;;;;;;;16.92;7.32;;;;;;;10.49;59.03;100895.91;6244686;23;20043;-80
2022/09/10 05:44:36;;;;;;;14.90;7.20;;;;;;;10.57;57.89;100895.38;6220979;23;20020;-80
2022/09/10 05:47:03;;;;;;;35.42;10.32;;;;;;;10.60;57.41;100878.44;6245754;23;20043;-79
2022/09/10 05:49:32;;;;;;;13.07;7.25;;;;;;;10.74;56.58;100892.38;6245920;22;20016;-89
2022/09/10 05:52:00;;;;;;;25.05;7.55;;;;;;;10.84;55.93;100889.59;6248654;23;20023;-78
2022/09/10 05:54:27;;;;;;;14.15;5.93;;;;;;;10.89;55.68;100892.31;6251062;23;20103;-85
2022/09/10 05:56:53;;;;;;;68.47;14.00;;;;;;;10.98;55.45;100890.66;6246610;23;20450;-78
2022/09/10 05:59:19;;;;;;;21.55;8.45;;;;;;;11.08;55.05;100886.28;6248162;22;20030;-79
2022/09/10 06:01:51;;;;;;;31.58;6.80;;;;;;;11.12;55.78;100876.41;6248128;22;20022;-79
2022/09/10 06:04:18;;;;;;;17.88;4.70;;;;;;;11.18;51.96;100872.56;6246282;22;20016;-77
2022/09/10 06:06:45;;;;;;;8.35;3.50;;;;;;;11.25;50.69;100884.03;6242786;23;20050;-78
2022/09/10 06:09:12;;;;;;;;;;;;;;;11.36;51.10;100882.91;6242976;23;20023;-78
2022/09/10 06:12:05;;;;;;;14.30;5.40;;;;;;;11.41;51.02;100882.06;6243175;23;20333;-79
2022/09/10 06:14:33;;;;;;;7.95;4.30;;;;;;;11.52;51.72;100876.28;6242842;23;20103;-79
2022/09/10 06:16:59;;;;;;;58.92;7.70;;;;;;;11.65;53.42;100880.28;6242673;23;20016;-81
2022/09/10 06:19:29;;;;;;;24.02;6.53;;;;;;;11.68;53.66;100877.00;6242511;23;20027;-80
2022/09/10 06:21:56;;;;;;;7.32;4.20;;;;;;;11.72;50.89;100883.56;6243988;22;20066;-80
2022/09/10 06:24:23;;;;;;;22.80;5.72;;;;;;;11.71;50.27;100864.66;6243158;23;20091;-80
2022/09/10 06:26:53;;;;;;;41.50;9.65;;;;;;;11.84;51.29;100872.28;6243426;23;20425;-80
2022/09/10 06:29:21;;;;;;;21.05;5.65;;;;;;;11.96;50.35;100874.69;6217320;23;20016;-80
2022/09/10 06:31:47;;;;;;;22.00;5.70;;;;;;;11.98;50.04;100870.53;6243191;23;20016;-81
2022/09/10 06:34:17;;;;;;;24.70;6.95;;;;;;;12.07;49.72;100880.91;6242783;23;20027;-82
2022/09/10 06:36:47;;;;;;;72.70;8.93;;;;;;;12.08;50.13;100882.53;6244482;22;20455;-80
2022/09/10 06:39:15;;;;;;;33.85;6.57;;;;;;;12.08;49.32;100888.03;6257000;22;20486;-82
2022/09/10 06:41:47;;;;;;;78.70;10.23;;;;;;;12.09;50.13;100868.56;6248000;22;20016;-80
2022/09/10 06:44:31;;;;;;;14.38;6.05;;;;;;;12.09;50.88;100856.78;6274892;22;20016;-80
2022/09/10 06:47:14;;;;;;;7.93;4.93;;;;;;;12.26;50.07;100881.88;6274483;22;20069;-79
2022/09/10 06:49:40;;;;;;;12.05;5.43;;;;;;;12.42;48.93;100885.31;6274509;22;20020;-79
2022/09/10 06:52:12;;;;;;;15.60;5.10;;;;;;;12.37;48.72;100860.66;6248118;22;20043;-80
2022/09/10 06:54:39;;;;;;;20.58;4.82;;;;;;;12.45;49.09;100862.81;6222141;22;20016;-82
2022/09/10 06:57:26;;;;;;;46.53;7.20;;;;;;;12.46;47.64;100858.97;6275370;22;20081;-81
2022/09/10 06:59:52;;;;;;;151.63;16.20;;;;;;;12.58;47.95;100875.88;6275274;22;20012;-81
2022/09/10 07:02:20;;;;;;;83.18;10.27;;;;;;;12.65;48.41;100876.34;6248054;22;20023;-82
2022/09/10 07:04:47;;;;;;;13.15;5.95;;;;;;;12.60;47.59;100875.56;6247049;22;20016;-81
2022/09/10 07:07:13;;;;;;;20.25;6.05;;;;;;;12.53;48.55;100856.69;6197305;22;20020;-81
2022/09/10 07:09:40;;;;;;;18.48;6.53;;;;;;;12.66;47.69;100858.75;6248336;22;20504;-81
2022/09/10 07:12:08;;;;;;;;;;;;;;;12.89;48.35;100870.88;6222612;22;20019;-80
2022/09/10 07:14:37;;;;;;;38.88;6.82;;;;;;;12.99;47.53;100871.91;6274186;22;19926;-82
2022/09/10 07:17:06;;;;;;;17.98;5.68;;;;;;;12.73;46.33;100866.66;6247555;22;20016;-82
2022/09/10 07:19:35;;;;;;;;;;;;;;;12.77;46.96;100870.44;6275312;22;20099;-81
2022/09/10 07:22:04;;;;;;;32.25;7.80;;;;;;;12.80;46.75;100863.56;6248653;22;19919;-82
2022/09/10 07:24:32;;;;;;;40.78;7.78;;;;;;;12.98;47.92;100870.25;6275466;22;20019;-82
2022/09/10 07:27:06;;;;;;;31.67;6.88;;;;;;;13.00;47.15;100860.63;6274819;22;20028;-81
2022/09/10 07:29:34;;;;;;;52.45;7.40;;;;;;;13.03;46.73;100868.28;6275029;22;20024;-81
2022/09/10 07:32:03;;;;;;;19.55;4.65;;;;;;;12.97;45.82;100861.19;6274724;22;20047;-82
2022/09/10 07:34:30;;;;;;;37.95;6.70;;;;;;;13.02;46.33;100863.91;6247945;22;20043;-82
2022/09/10 07:36:56;;;;;;;75.32;10.00;;;;;;;13.00;46.53;100868.84;6275913;22;20062;-81
2022/09/10 07:39:23;;;;;;;56.28;8.10;;;;;;;12.97;47.52;100863.13;6276475;22;20047;-82
2022/09/10 07:41:51;;;;;;;53.80;9.10;;;;;;;12.82;47.15;100848.47;6249179;22;20467;-81
2022/09/10 07:44:20;;;;;;;9.65;4.60;;;;;;;12.79;46.04;100871.00;6276356;22;20453;-81
2022/09/10 07:46:47;;;;;;;;;;;;;;;12.94;46.35;100872.75;6276496;22;20454;-81
2022/09/10 07:49:15;;;;;;;19.40;4.68;;;;;;;13.06;46.45;100866.88;6277490;22;19915;-82
2022/09/10 07:51:45;;;;;;;9.63;4.90;;;;;;;13.16;46.54;100862.06;6277889;22;20023;-81
2022/09/10 07:54:16;;;;;;;12.82;5.72;;;;;;;13.16;46.14;100845.59;6276980;22;20453;-81
2022/09/10 07:56:47;;;;;;;15.57;4.93;;;;;;;13.32;45.54;100849.03;6277211;22;20026;-82
2022/09/10 07:59:15;;;;;;;13.75;5.35;;;;;;;13.31;44.22;100835.56;6275890;22;20016;-80
2022/09/10 08:01:58;;;;;;;22.60;5.70;;;;;;;13.40;44.51;100858.53;6250283;22;20094;-80
2022/09/10 08:04:25;;;;;;;17.13;6.18;;;;;;;13.28;44.75;100847.16;6276286;22;20020;-80
2022/09/10 08:06:52;;;;;;;12.10;5.30;;;;;;;13.08;44.27;100815.25;6223053;22;20053;-80
2022/09/10 08:09:19;;;;;;;16.17;5.57;;;;;;;13.40;44.99;100842.84;6249240;22;20032;-80
2022/09/10 08:11:54;;;;;;;11.77;5.20;;;;;;;13.54;43.94;100842.97;6276781;22;20022;-80
2022/09/10 08:14:23;;;;;;;12.93;5.68;;;;;;;13.63;43.42;100832.94;6276064;22;20016;-80
2022/09/10 08:16:53;;;;;;;8.77;4.70;;;;;;;13.62;44.07;100825.00;6276155;22;20102;-80
2022/09/10 08:19:20;;;;;;;10.30;5.03;;;;;;;13.66;43.81;100826.03;6248875;22;20016;-80
2022/09/10 08:21:47;;;;;;;15.82;4.85;;;;;;;13.74;43.05;100828.13;6276278;22;20023;-79
2022/09/10 08:24:19;;;;;;;9.68;4.35;;;;;;;13.90;43.74;100825.94;6250145;22;20094;-83
2022/09/10 08:26:48;;;;;;;59.47;6.60;;;;;;;13.96;43.59;100821.22;6276895;22;20019;-80
2022/09/10 08:29:15;;;;;;;36.53;5.60;;;;;;;13.96;42.49;100812.97;6275361;22;20749;-80
2022/09/10 08:31:41;;;;;;;9.40;4.23;;;;;;;13.62;42.14;100819.50;6223428;22;20024;-80
2022/09/10 08:34:15;;;;;;;20.30;4.80;;;;;;;13.58;42.23;100815.72;6225262;22;20023;-81
2022/09/10 08:36:48;;;;;;;14.05;4.63;;;;;;;13.74;43.08;100824.53;6223231;22;20015;-82
2022/09/10 08:39:14;;;;;;;;;;;;;;;13.85;43.16;100823.28;6275881;22;20015;-80
2022/09/10 08:41:51;;;;;;;27.77;4.93;;;;;;;13.84;41.56;100813.41;6275466;22;19919;-82
2022/09/10 08:44:48;;;;;;;39.67;6.38;;;;;;;13.90;43.34;100817.72;6224237;22;20011;-80
2022/09/10 08:47:28;;;;;;;24.83;5.28;;;;;;;13.73;42.63;100820.97;6248579;22;20024;-83
2022/09/10 08:50:15;;;;;;;27.67;5.85;;;;;;;13.73;41.82;100806.44;6248542;22;20019;-81
2022/09/10 08:53:19;;;;;;;11.77;4.63;;;;;;;13.74;42.53;100799.81;6249068;22;20018;-81
2022/09/10 08:58:17;;;;;;;12.00;4.65;;;;;;;14.00;42.73;100787.31;6211654;23;20407;-81
2022/09/10 09:00:51;;;;;;;24.10;5.10;;;;;;;14.21;42.33;100801.56;6186664;23;20096;-81
2022/09/10 09:03:28;;;;;;;9.63;4.57;;;;;;;14.06;41.41;100786.09;6186347;23;20027;-81
2022/09/10 09:05:59;;;;;;;;;;;;;;;14.01;41.21;100799.94;6212182;23;20021;-79
2022/09/10 09:08:48;;;;;;;9.27;4.10;;;;;;;14.01;41.44;100794.44;6211776;23;19923;-81
2022/09/10 09:11:25;;;;;;;12.27;4.85;;;;;;;14.10;41.88;100792.66;6186859;23;20028;-80
2022/09/10 09:14:15;;;;;;;12.60;4.65;;;;;;;14.22;42.32;100794.91;6211471;23;20095;-82
2022/09/10 09:17:04;;;;;;;21.42;5.60;;;;;;;14.30;41.40;100791.50;6186606;23;20178;-82
2022/09/10 09:20:09;;;;;;;20.95;5.18;;;;;;;14.28;40.42;100790.97;6162604;23;20027;-82
2022/09/10 09:22:44;;;;;;;20.83;5.55;;;;;;;14.35;41.85;100785.06;6187291;23;20044;-82
2022/09/10 09:25:29;;;;;;;16.58;4.50;;;;;;;14.40;42.16;100779.47;6189010;23;20362;-81
2022/09/10 09:27:56;;;;;;;13.75;4.32;;;;;;;14.52;41.78;100770.78;6187976;23;20325;-81
2022/09/10 09:33:02;;;;;;;58.30;7.93;;;;;;;14.74;41.84;100767.34;6238268;22;20452;-82
2022/09/10 09:35:40;;;;;;;13.95;4.65;;;;;;;14.70;39.20;100761.63;6276365;22;20311;-81
2022/09/10 09:38:38;;;;;;;11.30;4.40;;;;;;;14.75;40.91;100780.78;6250263;22;20333;-81
2022/09/10 09:41:29;;;;;;;16.92;5.45;;;;;;;14.80;40.55;100772.44;6277244;22;20327;-81
2022/09/10 09:44:05;;;;;;;11.60;4.68;;;;;;;14.76;39.83;100765.88;6276770;22;20425;-81
2022/09/10 09:46:33;;;;;;;11.15;4.45;;;;;;;14.85;41.33;100759.69;6276359;22;20353;-82
2022/09/10 09:49:03;;;;;;;17.40;4.68;;;;;;;14.84;40.78;100744.28;6249351;22;20330;-81
2022/09/10 09:51:34;;;;;;;22.65;5.15;;;;;;;15.10;40.63;100763.84;6276370;22;20426;-81
2022/09/10 09:54:10;;;;;;;12.52;4.43;;;;;;;15.14;39.96;100757.41;6276520;22;20330;-81
2022/09/10 09:56:42;;;;;;;17.63;5.35;;;;;;;15.20;40.42;100742.41;6249401;22;20380;-81
2022/09/10 09:59:35;;;;;;;26.08;7.00;;;;;;;15.22;39.73;100733.81;6275908;22;20314;-81
2022/09/10 10:02:24;;;;;;;22.55;5.53;;;;;;;15.27;39.60;100723.50;6240403;22;20310;-81
2022/09/10 10:05:22;;;;;;;15.52;6.25;;;;;;;15.41;39.21;100747.47;6276228;22;20427;-81
2022/09/10 10:07:49;;;;;;;13.32;4.85;;;;;;;15.28;38.80;100738.09;6276045;22;20299;-81
2022/09/10 10:10:27;;;;;;;10.05;5.10;;;;;;;15.32;39.36;100730.03;6276040;22;20400;-81
2022/09/10 10:12:54;;;;;;;13.13;4.72;;;;;;;15.44;40.06;100727.56;6276490;22;20500;-81
2022/09/10 10:15:41;;;;;;;14.40;4.72;;;;;;;15.52;37.77;100738.63;6276272;22;20345;-81
2022/09/10 10:18:32;;;;;;;27.45;6.68;;;;;;;15.27;39.02;100719.94;6276382;22;20448;-81
2022/09/10 10:21:16;;;;;;;16.90;6.00;;;;;;;15.47;39.78;100736.00;6276770;22;20495;-81
2022/09/10 10:23:44;;;;;;;13.98;5.47;;;;;;;15.49;38.30;100721.91;6276863;22;20433;-81
2022/09/10 10:26:20;;;;;;;14.88;6.20;;;;;;;15.66;39.63;100732.25;6276287;22;20299;-81
2022/09/10 10:28:49;;;;;;;18.10;5.65;;;;;;;15.81;39.30;100723.66;6276514;22;20337;-81
2022/09/10 10:31:20;;;;;;;29.02;6.47;;;;;;;15.98;37.71;100725.72;6248112;22;20342;-81
2022/09/10 10:33:53;;;;;;;8.13;4.60;;;;;;;15.99;36.99;100727.34;6249468;22;20386;-81
2022/09/10 10:37:07;;;;;;;10.63;5.82;;;;;;;15.92;37.25;100721.44;6276251;22;20443;-81
2022/09/10 10:39:49;;;;;;;9.13;4.93;;;;;;;16.02;35.71;100729.47;6154699;23;20375;-81
2022/09/10 10:42:23;;;;;;;10.85;4.82;;;;;;;15.99;36.33;100713.53;6212264;23;20415;-81
2022/09/10 10:45:19;;;;;;;8.13;4.40;;;;;;;16.02;37.18;100701.06;6215904;23;20335;-81
2022/09/10 10:47:58;;;;;;;18.17;5.97;;;;;;;16.25;36.37;100715.66;6215107;23;20329;-81
2022/09/10 10:51:10;;;;;;;21.02;5.60;;;;;;;16.10;37.25;100703.88;6216046;23;20292;-81
2022/09/10 10:54:08;;;;;;;27.33;5.50;;;;;;;15.98;37.48;100703.66;6215170;23;20331;-81
2022/09/10 10:56:41;;;;;;;21.63;4.90;;;;;;;16.07;37.31;100699.00;6215558;23;20454;-81
2022/09/10 10:59:53;;;;;;;38.95;5.88;;;;;;;16.05;36.56;100690.22;6215501;23;20435;-81
2022/09/10 11:02:39;;;;;;;18.92;5.00;;;;;;;16.18;36.57;100688.50;6215807;23;20363;-81
2022/09/10 11:05:32;;;;;;;17.98;6.53;;;;;;;16.30;37.08;100685.16;6216539;23;20441;-81
2022/09/10 11:08:06;;;;;;;18.55;6.03;;;;;;;16.30;37.23;100677.69;6216502;23;20435;-81
2022/09/10 11:10:41;;;;;;;17.50;5.75;;;;;;;16.39;36.92;100664.75;6216666;23;20374;-81
2022/09/10 11:13:17;;;;;;;16.55;4.57;;;;;;;16.34;35.67;100666.84;6217761;23;20446;-81
2022/09/10 11:15:58;;;;;;;11.25;4.70;;;;;;;16.39;36.28;100663.91;6190803;23;20367;-81
2022/09/10 11:18:34;;;;;;;38.17;6.00;;;;;;;16.62;35.88;100659.97;6190168;23;20304;-81
2022/09/10 11:21:37;;;;;;;171.10;16.58;;;;;;;16.39;36.32;100663.91;6217477;23;20411;-79
2022/09/10 11:24:20;;;;;;;34.45;6.85;;;;;;;16.43;36.28;100660.22;6217662;23;20311;-82
2022/09/10 11:26:54;;;;;;;64.20;7.53;;;;;;;16.59;36.91;100671.63;6217756;23;20379;-81
2022/09/10 11:29:33;;;;;;;18.58;5.28;;;;;;;16.77;36.54;100641.34;6216693;23;20036;-81
2022/09/10 11:32:11;;;;;;;8.55;4.28;;;;;;;17.04;35.90;100654.84;6216998;23;20331;-81
2022/09/10 11:34:54;;;;;;;10.15;4.88;;;;;;;16.98;35.12;100645.09;6217402;23;20431;-80
2022/09/10 11:37:43;;;;;;;10.27;4.60;;;;;;;16.91;34.73;100645.56;6216684;23;20304;-80
2022/09/10 11:40:30;;;;;;;24.40;6.70;;;;;;;16.96;36.09;100630.81;6235819;23;20441;-81
2022/09/10 11:43:03;;;;;;;15.55;6.18;;;;;;;17.17;35.66;100630.97;6247959;22;20350;-81
2022/09/10 11:45:48;;;;;;;16.52;5.28;;;;;;;17.43;35.37;100639.25;6247884;22;20365;-81
2022/09/10 11:48:31;;;;;;;14.68;6.60;;;;;;;17.56;34.05;100629.16;6248444;23;20302;-81
2022/09/10 11:51:14;;;;;;;17.15;6.55;;;;;;;17.50;34.89;100628.50;6247299;23;20437;-82
2022/09/10 11:53:44;;;;;;;12.63;5.90;;;;;;;17.56;34.42;100631.91;6247997;22;20318;-81